createdAt,value
2023-04-12T00:00:50.818Z,4.55
2023-04-12T00:03:20.375Z,4.97
2023-04-12T00:05:48.236Z,5.15
2023-04-12T00:08:15.882Z,4.55
2023-04-12T00:10:42.874Z,4.78
2023-04-12T00:13:09.524Z,4.68
2023-04-12T00:15:36.246Z,4.30
2023-04-12T00:18:02.993Z,4.57
2023-04-12T00:20:29.679Z,4.28
2023-04-12T00:22:57.673Z,4.18
2023-04-12T00:25:24.868Z,4.90
2023-04-12T00:27:52.800Z,4.50
2023-04-12T00:30:22.181Z,4.40
2023-04-12T00:32:48.802Z,4.50
2023-04-12T00:35:15.541Z,4.50
2023-04-12T00:37:42.177Z,4.70
2023-04-12T00:40:09.896Z,4.30
2023-04-12T00:42:37.645Z,4.25
2023-04-12T00:45:05.070Z,4.20
2023-04-12T00:47:32.376Z,4.15
2023-04-12T00:50:00.170Z,4.32
2023-04-12T00:52:33.873Z,4.20
2023-04-12T00:55:03.758Z,4.40
2023-04-12T00:57:38.521Z,4.32
2023-04-12T01:00:08.197Z,4.05
2023-04-12T01:02:35.548Z,4.30
2023-04-12T01:05:03.016Z,3.95
2023-04-12T01:07:47.871Z,3.83
2023-04-12T01:10:56.215Z,3.80
2023-04-12T01:13:34.836Z,3.95
2023-04-12T01:16:12.824Z,3.75
2023-04-12T01:21:15.639Z,4.05
2023-04-12T01:23:58.376Z,3.42
2023-04-12T01:26:57.635Z,3.30
2023-04-12T01:29:27.157Z,3.47
2023-04-12T01:32:05.261Z,3.60
2023-04-12T01:34:33.768Z,3.22
2023-04-12T01:37:03.052Z,3.30
2023-04-12T01:39:30.934Z,3.17
2023-04-12T01:41:57.636Z,3.17
2023-04-12T01:44:24.901Z,3.10
2023-04-12T01:46:53.039Z,2.85
2023-04-12T01:49:21.863Z,2.85
2023-04-12T01:51:55.547Z,2.80
2023-04-12T01:54:27.502Z,2.80
2023-04-12T01:56:59.553Z,3.03
2023-04-12T01:59:39.431Z,2.92
2023-04-12T02:02:07.594Z,3.28
2023-04-12T02:04:35.839Z,2.83
2023-04-12T02:07:02.949Z,2.65
2023-04-12T02:09:29.920Z,2.85
2023-04-12T02:11:56.697Z,3.10
2023-04-12T02:14:23.368Z,2.65
2023-04-12T02:16:50.978Z,2.70
2023-04-12T02:19:17.663Z,2.92
2023-04-12T02:21:45.746Z,3.25
2023-04-12T02:24:13.074Z,2.80
2023-04-12T02:26:40.074Z,2.90
2023-04-12T02:29:10.432Z,2.50
2023-04-12T02:31:38.933Z,2.90
2023-04-12T02:34:08.845Z,3.00
2023-04-12T02:36:38.318Z,2.60
2023-04-12T02:39:05.594Z,2.70
2023-04-12T02:41:34.739Z,2.78
2023-04-12T02:44:02.114Z,2.85
2023-04-12T02:46:29.010Z,2.83
2023-04-12T02:48:58.553Z,2.80
2023-04-12T02:51:33.934Z,2.60
2023-04-12T02:54:01.394Z,2.80
2023-04-12T02:56:36.985Z,3.03
2023-04-12T02:59:16.475Z,2.92
2023-04-12T03:02:03.122Z,3.03
2023-04-12T03:04:32.997Z,2.92
2023-04-12T03:07:01.121Z,2.95
2023-04-12T03:09:34.830Z,3.08
2023-04-12T03:12:02.901Z,2.50
2023-04-12T03:14:34.562Z,2.80
2023-04-12T03:17:01.607Z,2.97
2023-04-12T03:19:29.361Z,2.80
2023-04-12T03:21:55.978Z,2.40
2023-04-12T03:24:23.663Z,2.42
2023-04-12T03:26:52.277Z,2.40
2023-04-12T03:29:23.200Z,2.72
2023-04-12T03:31:52.393Z,2.60
2023-04-12T03:34:19.603Z,2.72
2023-04-12T03:36:51.624Z,2.75
2023-04-12T03:39:34.530Z,2.78
2023-04-12T03:42:01.173Z,2.83
2023-04-12T03:44:29.038Z,2.75
2023-04-12T03:46:57.699Z,2.95
2023-04-12T03:49:26.450Z,2.80
2023-04-12T03:51:53.119Z,3.17
2023-04-12T03:54:20.684Z,2.55
2023-04-12T03:56:56.737Z,2.50
2023-04-12T03:59:29.158Z,2.78
2023-04-12T04:01:57.234Z,2.80
2023-04-12T04:04:26.259Z,2.50
2023-04-12T04:06:57.154Z,3.15
2023-04-12T04:09:25.090Z,3.10
2023-04-12T04:11:52.310Z,2.97
2023-04-12T04:14:21.035Z,2.97
2023-04-12T04:16:48.218Z,2.97
2023-04-12T04:19:17.283Z,2.58
2023-04-12T04:21:46.315Z,2.58
2023-04-12T04:24:14.343Z,2.60
2023-04-12T04:26:46.073Z,2.47
2023-04-12T04:29:23.703Z,2.65
2023-04-12T04:31:51.483Z,2.72
2023-04-12T04:34:19.265Z,2.90
2023-04-12T04:36:47.818Z,2.40
2023-04-12T04:39:22.098Z,2.50
2023-04-12T04:41:55.100Z,3.03
2023-04-12T04:44:45.118Z,2.80
2023-04-12T04:47:11.844Z,2.70
2023-04-12T04:49:38.606Z,3.10
2023-04-12T04:52:18.332Z,2.35
2023-04-12T04:54:46.972Z,2.85
2023-04-12T04:57:14.814Z,3.08
2023-04-12T04:59:41.460Z,2.55
2023-04-12T05:02:16.443Z,2.80
2023-04-12T05:04:44.573Z,2.90
2023-04-12T05:07:14.395Z,2.63
2023-04-12T05:09:44.272Z,2.50
2023-04-12T05:12:11.233Z,2.80
2023-04-12T05:14:47.234Z,2.35
2023-04-12T05:17:17.342Z,2.55
2023-04-12T05:19:44.810Z,3.00
2023-04-12T05:22:13.056Z,3.10
2023-04-12T05:24:39.959Z,2.78
2023-04-12T05:27:06.610Z,2.75
2023-04-12T05:29:34.282Z,2.72
2023-04-12T05:32:02.287Z,2.40
2023-04-12T05:34:28.968Z,2.58
2023-04-12T05:36:56.920Z,8.75
2023-04-12T05:39:23.898Z,2.40
2023-04-12T05:41:52.282Z,2.42
2023-04-12T05:44:19.111Z,2.60
2023-04-12T05:46:46.996Z,2.75
2023-04-12T05:49:13.700Z,2.58
2023-04-12T05:51:41.705Z,2.40
2023-04-12T05:54:20.902Z,2.35
2023-04-12T05:56:48.902Z,2.40
2023-04-12T05:59:16.521Z,2.63
2023-04-12T06:01:44.671Z,2.60
2023-04-12T06:04:11.759Z,2.38
2023-04-12T06:06:38.865Z,2.40
2023-04-12T06:09:05.527Z,2.33
2023-04-12T06:11:35.260Z,2.65
2023-04-12T06:14:02.618Z,2.40
2023-04-12T06:16:29.808Z,2.40
2023-04-12T06:18:57.320Z,2.60
2023-04-12T06:21:24.872Z,2.45
2023-04-12T06:23:52.045Z,2.33
2023-04-12T06:26:18.971Z,2.60
2023-04-12T06:28:46.230Z,2.63
2023-04-12T06:31:13.622Z,2.72
2023-04-12T06:33:41.926Z,2.13
2023-04-12T06:36:11.553Z,2.50
2023-04-12T06:38:38.990Z,2.08
2023-04-12T06:41:06.550Z,2.30
2023-04-12T06:43:33.235Z,2.13
2023-04-12T06:46:02.830Z,2.30
2023-04-12T06:48:29.922Z,2.17
2023-04-12T06:50:56.586Z,1.85
2023-04-12T06:53:23.268Z,2.30
2023-04-12T06:55:49.960Z,2.05
2023-04-12T06:58:16.727Z,2.00
2023-04-12T07:00:43.374Z,2.00
2023-04-12T07:03:10.519Z,1.80
2023-04-12T07:05:40.197Z,2.33
2023-04-12T07:08:07.871Z,2.20
2023-04-12T07:10:36.096Z,1.85
2023-04-12T07:13:07.053Z,2.08
2023-04-12T07:15:33.960Z,1.92
2023-04-12T07:18:00.727Z,2.00
2023-04-12T07:20:27.348Z,2.00
2023-04-12T07:22:53.981Z,1.90
2023-04-12T07:25:20.782Z,2.10
2023-04-12T07:27:48.106Z,2.33
2023-04-12T07:30:16.647Z,1.90
2023-04-12T07:32:43.398Z,2.17
2023-04-12T07:35:10.303Z,2.47
2023-04-12T07:37:37.577Z,1.90
2023-04-12T07:40:04.731Z,2.20
2023-04-12T07:42:31.465Z,2.00
2023-04-12T07:44:58.242Z,1.90
2023-04-12T07:47:25.000Z,2.10
2023-04-12T07:49:51.613Z,2.33
2023-04-12T07:52:18.330Z,3.10
2023-04-12T07:54:44.985Z,2.65
2023-04-12T07:57:11.656Z,2.13
2023-04-12T07:59:38.338Z,2.00
2023-04-12T08:02:06.304Z,2.20
2023-04-12T08:04:33.097Z,2.05
2023-04-12T08:06:59.748Z,2.00
2023-04-12T08:09:26.399Z,2.25
2023-04-12T08:11:53.193Z,2.28
2023-04-12T08:14:20.414Z,2.10
2023-04-12T08:16:47.106Z,2.38
2023-04-12T08:19:13.741Z,2.30
2023-04-12T08:21:40.551Z,2.40
2023-04-12T08:24:07.543Z,2.20
2023-04-12T08:26:34.170Z,2.00
2023-04-12T08:29:01.007Z,2.10
2023-04-12T08:31:28.326Z,2.17
2023-04-12T08:33:56.542Z,1.90
2023-04-12T08:36:23.460Z,2.10
2023-04-12T08:38:52.609Z,1.90
2023-04-12T08:41:20.166Z,2.00
2023-04-12T08:43:47.885Z,2.17
2023-04-12T08:46:15.898Z,2.03
2023-04-12T08:48:46.485Z,2.10
2023-04-12T08:51:15.315Z,2.20
2023-04-12T08:53:42.090Z,2.05
2023-04-12T08:56:13.551Z,2.20
2023-04-12T08:58:42.437Z,2.13
2023-04-12T09:01:15.984Z,2.03
2023-04-12T09:03:43.906Z,2.03
2023-04-12T09:06:12.965Z,2.35
2023-04-12T09:08:53.773Z,2.22
2023-04-12T09:11:28.175Z,2.20
2023-04-12T09:13:56.710Z,1.90
2023-04-12T09:16:37.866Z,2.05
2023-04-12T09:19:05.552Z,2.15
2023-04-12T09:21:36.509Z,2.20
2023-04-12T09:24:14.279Z,1.90
2023-04-12T09:26:41.889Z,2.00
2023-04-12T09:29:24.147Z,2.55
2023-04-12T09:31:58.316Z,2.00
2023-04-12T09:34:26.617Z,2.13
2023-04-12T09:36:54.500Z,1.85
2023-04-12T09:39:31.009Z,2.03
2023-04-12T09:42:17.925Z,2.33
2023-04-12T09:44:45.110Z,2.00
2023-04-12T09:47:11.784Z,2.00
2023-04-12T09:49:43.699Z,2.00
2023-04-12T09:52:12.431Z,2.22
2023-04-12T09:54:47.870Z,2.53
2023-04-12T09:57:18.188Z,1.83
2023-04-12T09:59:48.681Z,2.47
2023-04-12T10:02:18.443Z,2.05
2023-04-12T10:04:46.307Z,1.80
2023-04-12T10:07:15.429Z,1.67
2023-04-12T10:09:42.113Z,1.98
2023-04-12T10:12:09.559Z,2.03
2023-04-12T10:14:37.190Z,2.10
2023-04-12T10:17:04.827Z,2.00
2023-04-12T10:19:33.680Z,2.08
2023-04-12T10:22:01.584Z,1.83
2023-04-12T10:24:29.093Z,2.17
2023-04-12T10:26:58.561Z,1.83
2023-04-12T10:29:37.058Z,1.60
2023-04-12T10:32:24.238Z,1.83
2023-04-12T10:34:58.210Z,2.13
2023-04-12T10:38:02.288Z,1.90
2023-04-12T10:40:31.534Z,2.00
2023-04-12T10:43:23.081Z,2.08
2023-04-12T10:45:50.489Z,1.80
2023-04-12T10:48:53.369Z,1.83
2023-04-12T10:51:28.186Z,1.85
2023-04-12T10:54:07.961Z,1.90
2023-04-12T10:56:37.127Z,2.00
2023-04-12T10:59:05.728Z,1.63
2023-04-12T11:01:40.437Z,1.80
2023-04-12T11:04:21.320Z,1.80
2023-04-12T11:07:13.015Z,1.80
2023-04-12T11:09:57.535Z,2.00
2023-04-12T11:12:30.341Z,1.95
2023-04-12T11:15:01.551Z,1.85
2023-04-12T11:17:52.868Z,2.20
2023-04-12T11:20:20.255Z,2.30
2023-04-12T11:22:47.341Z,1.92
2023-04-12T11:25:17.822Z,2.15
2023-04-12T11:27:51.925Z,2.33
2023-04-12T11:30:19.844Z,2.60
2023-04-12T11:32:47.607Z,2.63
2023-04-12T11:35:20.319Z,2.63
2023-04-12T11:37:47.220Z,2.60
2023-04-12T11:40:14.578Z,3.13
2023-04-12T11:42:41.600Z,3.13
2023-04-12T11:45:15.899Z,3.00
2023-04-12T11:47:44.803Z,3.20
2023-04-12T11:50:12.019Z,3.05
2023-04-12T11:52:38.877Z,3.17
2023-04-12T11:55:11.159Z,3.60
2023-04-12T11:57:39.110Z,3.65
2023-04-12T12:00:06.936Z,4.75
2023-04-12T12:02:49.044Z,4.28
2023-04-12T12:05:20.606Z,4.60
2023-04-12T12:07:47.543Z,6.22
2023-04-12T12:10:21.096Z,7.45
2023-04-12T12:13:00.962Z,5.32
2023-04-12T12:15:31.705Z,4.70
2023-04-12T12:17:58.459Z,3.72
2023-04-12T12:20:25.347Z,4.07
2023-04-12T12:22:52.066Z,5.00
2023-04-12T12:25:19.216Z,4.47
2023-04-12T12:27:48.631Z,4.75
2023-04-12T12:30:20.801Z,4.75
2023-04-12T12:32:50.331Z,4.32
2023-04-12T12:35:17.078Z,4.57
2023-04-12T12:37:52.506Z,4.82
2023-04-12T12:40:27.877Z,4.60
2023-04-12T12:42:56.217Z,4.85
2023-04-12T12:45:25.255Z,4.78
2023-04-12T12:47:58.825Z,5.45
2023-04-12T12:50:27.775Z,4.80
2023-04-12T12:52:55.845Z,4.70
2023-04-12T12:55:24.191Z,4.85
2023-04-12T12:58:07.357Z,4.47
2023-04-12T13:00:35.570Z,4.20
2023-04-12T13:03:03.077Z,4.38
2023-04-12T13:05:30.385Z,4.65
2023-04-12T13:07:57.025Z,3.78
2023-04-12T13:10:23.923Z,4.18
2023-04-12T13:12:50.826Z,3.95
2023-04-12T13:15:22.956Z,3.70
2023-04-12T13:17:52.646Z,2.97
2023-04-12T13:20:19.436Z,2.92
2023-04-12T13:22:46.023Z,2.90
2023-04-12T13:25:12.658Z,2.90
2023-04-12T13:27:39.425Z,2.78
2023-04-12T13:30:06.925Z,2.70
2023-04-12T13:32:33.689Z,2.22
2023-04-12T13:35:01.587Z,2.45
2023-04-12T13:37:28.223Z,2.20
2023-04-12T13:39:54.867Z,2.17
2023-04-12T13:42:22.821Z,2.40
2023-04-12T13:44:49.936Z,2.20
2023-04-12T13:47:17.950Z,2.10
2023-04-12T13:49:44.775Z,2.30
2023-04-12T13:52:11.643Z,2.47
2023-04-12T13:54:38.340Z,2.28
2023-04-12T13:57:05.822Z,2.20
2023-04-12T13:59:32.895Z,2.22
2023-04-12T14:02:00.852Z,2.30
2023-04-12T14:04:28.689Z,2.13
2023-04-12T14:06:56.089Z,2.22
2023-04-12T14:09:27.478Z,2.10
2023-04-12T14:11:56.323Z,2.50
2023-04-12T14:14:24.307Z,2.30
2023-04-12T14:16:53.419Z,2.20
2023-04-12T14:19:20.783Z,2.70
2023-04-12T14:21:48.479Z,2.30
2023-04-12T14:24:16.245Z,2.28
2023-04-12T14:26:43.094Z,2.78
2023-04-12T14:29:10.346Z,2.38
2023-04-12T14:31:37.696Z,2.53
2023-04-12T14:34:04.872Z,2.42
2023-04-12T14:36:33.407Z,2.53
2023-04-12T14:39:01.567Z,2.60
2023-04-12T14:41:28.473Z,2.47
2023-04-12T14:43:55.196Z,2.30
2023-04-12T14:46:22.147Z,2.75
2023-04-12T14:48:48.751Z,2.30
2023-04-12T14:51:15.967Z,2.25
2023-04-12T14:53:43.244Z,2.60
2023-04-12T14:56:23.983Z,3.00
2023-04-12T14:58:55.342Z,3.10
2023-04-12T15:01:23.785Z,2.67
2023-04-12T15:03:51.925Z,2.50
2023-04-12T15:06:20.531Z,2.50
2023-04-12T15:08:49.401Z,2.75
2023-04-12T15:11:19.044Z,2.38
2023-04-12T15:13:45.834Z,2.42
2023-04-12T15:16:12.556Z,2.75
2023-04-12T15:18:41.580Z,2.15
2023-04-12T15:21:09.480Z,2.47
2023-04-12T15:23:36.523Z,2.28
2023-04-12T15:26:03.600Z,2.50
2023-04-12T15:28:31.815Z,2.00
2023-04-12T15:30:58.808Z,2.30
2023-04-12T15:33:25.966Z,2.35
2023-04-12T15:35:56.407Z,2.75
2023-04-12T15:38:24.661Z,2.50
2023-04-12T15:41:01.897Z,2.53
2023-04-12T15:43:29.187Z,2.58
2023-04-12T15:45:57.278Z,2.72
2023-04-12T15:48:25.626Z,2.80
2023-04-12T15:50:54.082Z,2.50
2023-04-12T15:53:22.649Z,2.15
2023-04-12T15:55:54.825Z,2.42
2023-04-12T15:58:23.207Z,2.60
2023-04-12T16:00:51.766Z,2.80
2023-04-12T16:03:19.713Z,2.55
2023-04-12T16:05:47.100Z,2.65
2023-04-12T16:08:13.767Z,2.75
2023-04-12T16:10:41.395Z,3.05
2023-04-12T16:13:10.168Z,2.78
2023-04-12T16:15:37.637Z,2.70
2023-04-12T16:18:04.331Z,2.70
2023-04-12T16:20:31.644Z,2.75
2023-04-12T16:22:58.672Z,2.60
2023-04-12T16:25:28.016Z,2.72
2023-04-12T16:27:55.490Z,2.63
2023-04-12T16:30:23.046Z,2.70
2023-04-12T16:32:51.189Z,2.65
2023-04-12T16:35:18.506Z,2.70
2023-04-12T16:37:45.904Z,2.92
2023-04-12T16:40:13.049Z,2.90
2023-04-12T16:42:41.861Z,2.67
2023-04-12T16:45:09.981Z,2.83
2023-04-12T16:47:38.223Z,3.20
2023-04-12T16:50:08.400Z,3.30
2023-04-12T16:52:36.014Z,2.75
2023-04-12T16:55:03.538Z,3.05
2023-04-12T16:57:30.239Z,2.70
2023-04-12T16:59:57.458Z,3.03
2023-04-12T17:02:24.981Z,2.90
2023-04-12T17:04:51.973Z,3.17
2023-04-12T17:07:19.035Z,4.35
2023-04-12T17:09:45.795Z,2.95
2023-04-12T17:12:12.873Z,3.15
2023-04-12T17:14:39.640Z,2.95
2023-04-12T17:17:06.844Z,2.92
2023-04-12T17:19:33.787Z,2.90
2023-04-12T17:22:00.594Z,2.90
2023-04-12T17:24:28.661Z,3.08
2023-04-12T17:26:55.468Z,3.13
2023-04-12T17:29:22.501Z,3.35
2023-04-12T17:31:50.837Z,3.03
2023-04-12T17:34:20.612Z,3.20
2023-04-12T17:36:49.077Z,3.13
2023-04-12T17:39:16.307Z,3.08
2023-04-12T17:41:43.249Z,3.00
2023-04-12T17:44:10.153Z,2.83
2023-04-12T17:46:37.342Z,3.17
2023-04-12T17:49:05.910Z,3.00
2023-04-12T17:51:33.329Z,2.80
2023-04-12T17:54:00.818Z,3.28
2023-04-12T17:56:28.014Z,3.10
2023-04-12T17:58:55.209Z,3.30
2023-04-12T18:01:22.498Z,3.10
2023-04-12T18:03:49.902Z,4.10
2023-04-12T18:06:18.374Z,3.03
2023-04-12T18:08:47.015Z,3.08
2023-04-12T18:11:13.868Z,2.60
2023-04-12T18:13:40.495Z,2.67
2023-04-12T18:16:07.388Z,2.97
2023-04-12T18:18:34.265Z,2.47
2023-04-12T18:21:04.581Z,2.70
2023-04-12T18:23:31.510Z,2.70
2023-04-12T18:25:58.368Z,2.67
2023-04-12T18:28:25.085Z,2.67
2023-04-12T18:30:51.781Z,2.55
2023-04-12T18:33:18.458Z,2.70
2023-04-12T18:35:45.125Z,3.05
2023-04-12T18:38:11.772Z,2.72
2023-04-12T18:40:38.788Z,2.97
2023-04-12T18:43:05.552Z,2.55
2023-04-12T18:45:32.464Z,2.85
2023-04-12T18:48:00.211Z,2.60
2023-04-12T18:50:27.511Z,3.08
2023-04-12T18:52:54.216Z,2.67
2023-04-12T18:55:21.193Z,2.92
2023-04-12T18:57:49.246Z,2.95
2023-04-12T19:00:16.804Z,2.90
2023-04-12T19:02:43.620Z,3.40
2023-04-12T19:05:11.724Z,3.20
2023-04-12T19:07:38.457Z,3.35
2023-04-12T19:10:05.626Z,2.88
2023-04-12T19:12:33.083Z,3.13
2023-04-12T19:14:59.978Z,3.58
2023-04-12T19:17:29.534Z,3.83
2023-04-12T19:19:57.072Z,4.00
2023-04-12T19:22:28.144Z,3.35
2023-04-12T19:24:54.995Z,3.47
2023-04-12T19:27:23.010Z,2.85
2023-04-12T19:29:51.583Z,2.78
2023-04-12T19:32:19.156Z,2.40
2023-04-12T19:34:47.177Z,2.10
2023-04-12T19:37:14.126Z,1.95
2023-04-12T19:39:41.183Z,1.70
2023-04-12T19:42:07.954Z,1.80
2023-04-12T19:44:34.635Z,2.10
2023-04-12T19:47:01.698Z,2.55
2023-04-12T19:49:28.788Z,2.67
2023-04-12T19:51:55.517Z,2.30
2023-04-12T19:54:25.703Z,2.15
2023-04-12T19:56:53.451Z,2.60
2023-04-12T19:59:20.921Z,2.38
2023-04-12T20:01:48.231Z,2.80
2023-04-12T20:04:16.641Z,2.53
2023-04-12T20:06:43.887Z,2.97
2023-04-12T20:09:14.103Z,2.78
2023-04-12T20:11:41.607Z,2.55
2023-04-12T20:14:08.860Z,2.60
2023-04-12T20:16:42.643Z,2.45
2023-04-12T20:19:09.790Z,2.65
2023-04-12T20:21:36.668Z,2.92
2023-04-12T20:24:08.709Z,2.88
2023-04-12T20:26:36.330Z,2.58
2023-04-12T20:29:07.920Z,2.78
2023-04-12T20:31:34.634Z,2.78
2023-04-12T20:34:01.363Z,2.03
2023-04-12T20:36:29.274Z,1.77
2023-04-12T20:38:56.292Z,2.15
2023-04-12T20:41:23.862Z,2.63
2023-04-12T20:43:50.820Z,2.40
2023-04-12T20:46:20.674Z,2.20
2023-04-12T20:48:51.519Z,2.78
2023-04-12T20:51:18.573Z,2.90
2023-04-12T20:53:48.312Z,2.92
2023-04-12T20:56:16.991Z,2.85
2023-04-12T20:58:44.414Z,3.05
2023-04-12T21:01:14.699Z,3.10
2023-04-12T21:03:42.546Z,3.05
2023-04-12T21:06:10.901Z,2.75
2023-04-12T21:08:39.021Z,3.05
2023-04-12T21:11:06.488Z,2.65
2023-04-12T21:13:34.522Z,2.53
2023-04-12T21:16:05.597Z,2.38
2023-04-12T21:18:34.284Z,3.30
2023-04-12T21:21:01.214Z,2.90
2023-04-12T21:23:28.075Z,2.75
2023-04-12T21:25:54.744Z,2.67
2023-04-12T21:28:22.885Z,2.40
2023-04-12T21:30:54.864Z,2.38
2023-04-12T21:33:25.594Z,2.50
2023-04-12T21:35:56.340Z,3.00
2023-04-12T21:38:23.698Z,3.85
2023-04-12T21:40:51.208Z,3.15
2023-04-12T21:43:18.425Z,2.80
2023-04-12T21:45:45.439Z,2.40
2023-04-12T21:48:14.483Z,2.55
2023-04-12T21:50:41.959Z,2.30
2023-04-12T21:53:08.972Z,2.28
2023-04-12T21:55:36.392Z,2.30
2023-04-12T21:58:03.783Z,2.30
2023-04-12T22:00:32.095Z,2.50
2023-04-12T22:02:59.621Z,2.70
2023-04-12T22:05:27.852Z,2.10
2023-04-12T22:07:55.441Z,2.50
2023-04-12T22:10:22.067Z,2.42
2023-04-12T22:12:50.121Z,3.00
2023-04-12T22:15:17.257Z,3.22
2023-04-12T22:17:45.285Z,2.72
2023-04-12T22:20:13.198Z,2.50
2023-04-12T22:22:40.835Z,2.58
2023-04-12T22:25:11.734Z,3.30
2023-04-12T22:27:39.352Z,3.65
2023-04-12T22:30:08.443Z,3.55
2023-04-12T22:32:35.160Z,4.22
2023-04-12T22:35:08.369Z,3.80
2023-04-12T22:37:39.035Z,3.72
2023-04-12T22:40:11.356Z,3.42
2023-04-12T22:42:38.578Z,3.03
2023-04-12T22:45:07.700Z,3.25
2023-04-12T22:47:34.535Z,3.00
2023-04-12T22:50:02.000Z,2.90
2023-04-12T22:52:31.297Z,3.03
2023-04-12T22:54:57.928Z,2.92
2023-04-12T22:57:25.564Z,2.90
2023-04-12T22:59:53.592Z,2.92
2023-04-12T23:02:20.487Z,3.10
2023-04-12T23:04:49.196Z,2.85
2023-04-12T23:07:16.530Z,2.72
2023-04-12T23:09:45.242Z,2.80
2023-04-12T23:12:12.551Z,2.80
2023-04-12T23:14:39.996Z,3.05
2023-04-12T23:17:07.362Z,2.85
2023-04-12T23:19:34.526Z,2.75
2023-04-12T23:22:01.225Z,2.80
2023-04-12T23:24:28.482Z,3.08
2023-04-12T23:26:57.785Z,3.15
2023-04-12T23:29:25.707Z,3.55
2023-04-12T23:31:52.899Z,3.40
2023-04-12T23:34:21.978Z,3.67
2023-04-12T23:36:50.166Z,4.07
2023-04-12T23:39:18.206Z,5.15
2023-04-12T23:41:46.649Z,5.10
2023-04-12T23:44:13.931Z,5.50
2023-04-12T23:46:40.801Z,5.50
2023-04-12T23:49:08.478Z,5.38
2023-04-12T23:51:35.099Z,5.13
2023-04-12T23:54:01.834Z,5.15
2023-04-12T23:56:30.092Z,4.97
2023-04-12T23:58:56.746Z,4.72
